createdAt,value
2023-02-06T00:00:50.000Z,327.55
2023-02-06T00:03:16.608Z,323.15
2023-02-06T00:05:43.279Z,334.65
2023-02-06T00:08:09.803Z,334.08
2023-02-06T00:10:36.326Z,336.48
2023-02-06T00:13:02.827Z,333.45
2023-02-06T00:15:29.361Z,335.23
2023-02-06T00:17:56.240Z,351.42
2023-02-06T00:20:22.752Z,335.98
2023-02-06T00:22:49.239Z,333.88
2023-02-06T00:25:15.802Z,328.88
2023-02-06T00:27:42.356Z,331.88
2023-02-06T00:30:09.141Z,333.45
2023-02-06T00:32:35.801Z,335.10
2023-02-06T00:35:02.326Z,333.35
2023-02-06T00:37:28.802Z,342.17
2023-02-06T00:39:55.298Z,331.73
2023-02-06T00:42:21.805Z,339.88
2023-02-06T00:44:48.326Z,335.35
2023-02-06T00:47:15.145Z,346.50
2023-02-06T00:49:41.918Z,341.40
2023-02-06T00:52:08.511Z,357.48
2023-02-06T00:54:35.043Z,346.55
2023-02-06T00:57:01.548Z,346.00
2023-02-06T00:59:28.074Z,340.15
2023-02-06T01:01:55.239Z,340.30
2023-02-06T01:04:21.707Z,348.70
2023-02-06T01:06:48.257Z,338.33
2023-02-06T01:09:14.842Z,340.05
2023-02-06T01:11:41.333Z,351.08
2023-02-06T01:14:07.859Z,342.67
2023-02-06T01:16:34.354Z,333.70
2023-02-06T01:19:01.185Z,355.63
2023-02-06T01:21:27.746Z,345.08
2023-02-06T01:23:55.019Z,341.77
2023-02-06T01:26:24.116Z,338.42
2023-02-06T01:28:50.967Z,321.48
2023-02-06T01:31:20.900Z,340.55
2023-02-06T01:33:48.821Z,335.08
2023-02-06T01:36:16.469Z,335.85
2023-02-06T01:38:43.355Z,342.05
2023-02-06T01:41:10.724Z,341.30
2023-02-06T01:43:40.381Z,343.20
2023-02-06T01:46:07.340Z,351.55
2023-02-06T01:48:50.083Z,344.45
2023-02-06T01:51:22.932Z,347.75
2023-02-06T01:53:55.726Z,344.13
2023-02-06T01:56:23.606Z,342.50
2023-02-06T01:58:53.093Z,344.48
2023-02-06T02:01:20.080Z,341.65
2023-02-06T02:03:48.921Z,350.17
2023-02-06T02:06:18.891Z,341.10
2023-02-06T02:08:47.273Z,340.88
2023-02-06T02:13:43.053Z,329.02
2023-02-06T02:16:20.521Z,347.85
2023-02-06T02:18:59.560Z,336.60
2023-02-06T02:21:28.942Z,338.50
2023-02-06T02:24:05.878Z,337.98
2023-02-06T02:27:04.285Z,342.75
2023-02-06T02:29:37.135Z,335.23
2023-02-06T02:32:19.551Z,348.35
2023-02-06T02:35:00.515Z,342.95
2023-02-06T02:37:32.433Z,343.23
2023-02-06T02:39:58.853Z,342.30
2023-02-06T02:42:35.333Z,349.80
2023-02-06T02:45:14.057Z,352.38
2023-02-06T02:47:56.056Z,350.02
2023-02-06T02:50:23.052Z,345.10
2023-02-06T02:52:49.770Z,346.08
2023-02-06T02:55:22.331Z,344.00
2023-02-06T02:57:56.311Z,345.55
2023-02-06T03:00:24.091Z,345.40
2023-02-06T03:02:51.726Z,344.73
2023-02-06T03:05:20.727Z,346.55
2023-02-06T03:08:06.404Z,346.00
2023-02-06T03:10:41.139Z,344.33
2023-02-06T03:13:21.520Z,353.92
2023-02-06T03:15:59.153Z,345.88
2023-02-06T03:18:30.964Z,347.35
2023-02-06T03:20:59.033Z,352.40
2023-02-06T03:23:31.755Z,349.13
2023-02-06T03:26:00.719Z,352.25
2023-02-06T03:28:32.200Z,348.42
2023-02-06T03:31:00.094Z,355.73
2023-02-06T03:33:31.779Z,351.98
2023-02-06T03:35:58.945Z,352.58
2023-02-06T03:38:25.852Z,353.08
2023-02-06T03:40:53.410Z,354.25
2023-02-06T03:43:20.579Z,344.85
2023-02-06T03:45:50.559Z,343.58
2023-02-06T03:48:21.845Z,353.80
2023-02-06T03:50:50.196Z,351.80
2023-02-06T03:53:18.127Z,353.52
2023-02-06T03:55:46.077Z,363.92
2023-02-06T03:58:14.049Z,358.90
2023-02-06T04:00:42.293Z,356.38
2023-02-06T04:03:10.276Z,367.23
2023-02-06T04:05:37.737Z,360.05
2023-02-06T04:08:04.672Z,361.58
2023-02-06T04:10:31.357Z,357.52
2023-02-06T04:12:57.895Z,361.08
2023-02-06T04:15:24.480Z,365.48
2023-02-06T04:17:59.857Z,370.33
2023-02-06T04:20:27.353Z,374.58
2023-02-06T04:22:53.850Z,361.10
2023-02-06T04:25:20.364Z,359.10
2023-02-06T04:27:47.421Z,360.45
2023-02-06T04:30:14.186Z,358.30
2023-02-06T04:32:40.739Z,358.98
2023-02-06T04:35:07.558Z,360.73
2023-02-06T04:37:34.084Z,363.50
2023-02-06T04:40:00.584Z,369.00
2023-02-06T04:42:27.213Z,370.15
2023-02-06T04:44:53.724Z,374.10
2023-02-06T04:47:20.217Z,365.77
2023-02-06T04:49:46.707Z,370.63
2023-02-06T04:52:13.335Z,362.88
2023-02-06T04:54:39.848Z,369.05
2023-02-06T04:57:06.426Z,369.98
2023-02-06T04:59:32.920Z,365.05
2023-02-06T05:01:59.393Z,369.77
2023-02-06T05:04:25.909Z,363.88
2023-02-06T05:06:52.412Z,367.58
2023-02-06T05:09:18.946Z,361.25
2023-02-06T05:11:47.043Z,366.42
2023-02-06T05:14:13.548Z,367.35
2023-02-06T05:16:40.067Z,370.33
2023-02-06T05:19:06.531Z,372.30
2023-02-06T05:21:33.877Z,368.40
2023-02-06T05:24:00.409Z,370.00
2023-02-06T05:26:26.989Z,364.42
2023-02-06T05:28:53.460Z,367.92
2023-02-06T05:31:20.262Z,370.27
2023-02-06T05:33:51.146Z,365.60
2023-02-06T05:36:19.069Z,366.40
2023-02-06T05:38:45.624Z,359.05
2023-02-06T05:41:12.181Z,366.83
2023-02-06T05:43:38.774Z,364.13
2023-02-06T05:46:05.332Z,362.58
2023-02-06T05:48:34.396Z,358.95
2023-02-06T05:51:01.411Z,371.63
2023-02-06T05:53:28.089Z,361.55
2023-02-06T05:55:54.597Z,356.60
2023-02-06T05:58:21.216Z,358.70
2023-02-06T06:00:48.409Z,367.58
2023-02-06T06:03:14.905Z,364.30
2023-02-06T06:05:41.713Z,365.90
2023-02-06T06:08:08.295Z,368.17
2023-02-06T06:10:35.392Z,367.10
2023-02-06T06:13:01.990Z,365.65
2023-02-06T06:15:28.545Z,362.60
2023-02-06T06:17:55.351Z,364.85
2023-02-06T06:20:22.271Z,367.35
2023-02-06T06:22:48.778Z,370.85
2023-02-06T06:25:15.310Z,366.45
2023-02-06T06:27:42.040Z,369.10
2023-02-06T06:30:09.569Z,371.58
2023-02-06T06:32:36.672Z,373.58
2023-02-06T06:35:03.598Z,381.02
2023-02-06T06:37:40.476Z,372.83
2023-02-06T06:40:08.039Z,371.35
2023-02-06T06:42:34.582Z,368.92
2023-02-06T06:45:01.129Z,366.17
2023-02-06T06:47:27.941Z,370.35
2023-02-06T06:49:54.497Z,376.10
2023-02-06T06:52:25.277Z,371.20
2023-02-06T06:54:53.125Z,368.67
2023-02-06T06:57:20.679Z,369.77
2023-02-06T06:59:53.564Z,375.60
2023-02-06T07:02:20.520Z,373.98
2023-02-06T07:04:47.477Z,376.65
2023-02-06T07:07:14.028Z,376.95
2023-02-06T07:09:40.534Z,376.20
2023-02-06T07:12:07.174Z,373.83
2023-02-06T07:14:33.734Z,370.55
2023-02-06T07:17:01.606Z,377.60
2023-02-06T07:19:28.116Z,373.05
2023-02-06T07:21:54.663Z,373.65
2023-02-06T07:24:21.193Z,366.33
2023-02-06T07:26:48.241Z,370.33
2023-02-06T07:29:14.752Z,369.27
2023-02-06T07:31:41.432Z,367.65
2023-02-06T07:34:07.992Z,375.70
2023-02-06T07:36:34.680Z,362.52
2023-02-06T07:39:03.014Z,374.42
2023-02-06T07:41:29.532Z,373.95
2023-02-06T07:43:56.842Z,361.85
2023-02-06T07:46:23.618Z,358.83
2023-02-06T07:48:50.565Z,366.67
2023-02-06T07:51:17.159Z,365.95
2023-02-06T07:53:43.697Z,364.55
2023-02-06T07:56:19.048Z,374.50
2023-02-06T07:58:47.241Z,372.00
2023-02-06T08:01:13.809Z,360.27
2023-02-06T08:03:40.346Z,369.00
2023-02-06T08:06:11.571Z,391.40
2023-02-06T08:08:41.550Z,396.25
2023-02-06T08:11:10.833Z,409.25
2023-02-06T08:13:39.833Z,416.98
2023-02-06T08:16:08.229Z,412.00
2023-02-06T08:21:03.692Z,398.85
2023-02-06T08:23:30.365Z,409.20
2023-02-06T08:26:05.665Z,411.67
2023-02-06T08:28:32.347Z,413.67
2023-02-06T08:30:59.045Z,427.67
2023-02-06T08:33:25.772Z,413.83
2023-02-06T08:35:52.478Z,415.20
2023-02-06T08:38:18.957Z,414.33
2023-02-06T08:40:45.547Z,414.27
2023-02-06T08:43:12.093Z,416.85
2023-02-06T08:45:38.645Z,420.73
2023-02-06T08:48:05.233Z,408.40
2023-02-06T08:50:31.793Z,414.88
2023-02-06T08:52:59.123Z,421.17
2023-02-06T08:55:31.675Z,419.35
2023-02-06T08:57:58.243Z,416.98
2023-02-06T09:00:24.806Z,416.05
2023-02-06T09:02:55.056Z,420.42
2023-02-06T09:05:22.423Z,415.05
2023-02-06T09:07:49.730Z,423.90
2023-02-06T09:10:27.118Z,428.75
2023-02-06T09:12:57.639Z,431.60
2023-02-06T09:15:24.322Z,428.10
2023-02-06T09:17:50.923Z,441.13
2023-02-06T09:20:17.987Z,437.25
2023-02-06T09:22:44.642Z,421.38
2023-02-06T09:25:11.337Z,441.05
2023-02-06T09:27:38.034Z,436.67
2023-02-06T09:30:05.966Z,454.20
2023-02-06T09:32:32.478Z,455.27
2023-02-06T09:34:59.034Z,439.02
2023-02-06T09:37:25.514Z,438.52
2023-02-06T09:39:52.069Z,454.30
2023-02-06T09:42:27.715Z,456.88
2023-02-06T09:45:03.121Z,451.73
2023-02-06T09:47:40.156Z,437.67
2023-02-06T09:50:13.650Z,445.77
2023-02-06T09:53:17.128Z,453.15
2023-02-06T09:55:54.724Z,449.02
2023-02-06T09:58:31.181Z,451.48
2023-02-06T10:01:03.781Z,459.10
2023-02-06T10:04:10.137Z,457.48
2023-02-06T10:06:46.168Z,451.33
2023-02-06T10:09:22.074Z,456.73
2023-02-06T10:12:06.185Z,446.92
2023-02-06T10:14:59.358Z,452.25
2023-02-06T10:17:39.941Z,457.90
2023-02-06T10:20:31.924Z,464.23
2023-02-06T10:23:16.069Z,459.83
2023-02-06T10:25:49.757Z,479.23
2023-02-06T10:28:27.228Z,468.20
2023-02-06T10:31:09.600Z,473.33
2023-02-06T10:33:45.531Z,472.67
2023-02-06T10:36:26.794Z,479.60
2023-02-06T10:39:20.855Z,477.52
2023-02-06T10:41:56.426Z,477.25
2023-02-06T10:44:51.141Z,478.95
2023-02-06T10:47:41.267Z,485.63
2023-02-06T10:50:34.456Z,486.45
2023-02-06T10:53:05.565Z,491.75
2023-02-06T10:55:41.620Z,489.02
2023-02-06T10:58:42.993Z,490.75
2023-02-06T11:01:25.043Z,495.85
2023-02-06T11:04:17.634Z,500.65
2023-02-06T11:06:46.789Z,494.55
2023-02-06T11:09:14.516Z,500.20
2023-02-06T11:11:46.042Z,506.48
2023-02-06T11:14:18.005Z,508.90
2023-02-06T11:16:44.752Z,517.90
2023-02-06T11:19:17.481Z,517.20
2023-02-06T11:21:43.974Z,513.00
2023-02-06T11:24:16.142Z,519.60
2023-02-06T11:26:47.157Z,511.30
2023-02-06T11:29:39.301Z,505.15
2023-02-06T11:32:07.609Z,495.63
2023-02-06T11:37:36.837Z,491.38
2023-02-06T11:40:18.952Z,493.42
2023-02-06T11:42:52.641Z,488.52
2023-02-06T11:45:33.082Z,488.40
2023-02-06T11:48:02.229Z,487.65
2023-02-06T11:50:37.230Z,483.67
2023-02-06T11:53:18.208Z,487.67
2023-02-06T11:55:46.740Z,483.63
2023-02-06T11:58:13.144Z,486.88
2023-02-06T12:00:51.945Z,485.75
2023-02-06T12:03:35.451Z,488.70
2023-02-06T12:06:20.243Z,484.15
2023-02-06T12:08:52.709Z,475.77
2023-02-06T12:11:33.296Z,483.63
2023-02-06T12:14:07.239Z,483.65
2023-02-06T12:16:36.689Z,488.60
2023-02-06T12:19:10.711Z,493.20
2023-02-06T12:21:57.279Z,489.05
2023-02-06T12:24:32.279Z,488.00
2023-02-06T12:27:05.741Z,484.40
2023-02-06T12:29:38.889Z,483.63
2023-02-06T12:32:18.299Z,492.75
2023-02-06T12:34:56.401Z,483.65
2023-02-06T12:37:40.225Z,481.42
2023-02-06T12:40:27.027Z,484.08
2023-02-06T12:43:08.170Z,485.25
2023-02-06T12:48:21.480Z,480.38
2023-02-06T12:51:09.984Z,482.80
2023-02-06T12:53:48.457Z,484.90
2023-02-06T12:56:23.355Z,489.05
2023-02-06T12:58:59.604Z,484.98
2023-02-06T13:02:00.571Z,493.27
2023-02-06T13:04:33.128Z,486.95
2023-02-06T13:07:06.408Z,493.25
2023-02-06T13:10:04.075Z,493.05
2023-02-06T13:12:31.542Z,489.95
2023-02-06T13:15:03.942Z,489.60
2023-02-06T13:17:44.847Z,488.55
2023-02-06T13:20:16.413Z,490.42
2023-02-06T13:23:15.974Z,489.05
2023-02-06T13:25:46.461Z,491.17
2023-02-06T13:28:22.120Z,507.42
2023-02-06T13:31:07.472Z,509.73
2023-02-06T13:33:44.079Z,511.27
2023-02-06T13:36:18.340Z,528.70
2023-02-06T13:38:44.984Z,526.80
2023-02-06T13:41:14.390Z,541.97
2023-02-06T13:43:51.660Z,540.25
2023-02-06T13:46:20.772Z,546.90
2023-02-06T13:48:53.149Z,545.85
2023-02-06T13:51:44.343Z,562.42
2023-02-06T13:54:26.748Z,566.65
2023-02-06T13:57:26.739Z,557.75
2023-02-06T13:59:53.375Z,559.83
2023-02-06T14:02:28.825Z,568.03
2023-02-06T14:04:58.588Z,555.22
2023-02-06T14:07:50.381Z,554.58
2023-02-06T14:10:48.083Z,554.33
2023-02-06T14:13:48.997Z,536.85
2023-02-06T14:16:28.096Z,541.45
2023-02-06T14:19:09.884Z,554.17
2023-02-06T14:21:40.735Z,566.08
2023-02-06T14:24:31.757Z,568.72
2023-02-06T14:27:20.075Z,563.00
2023-02-06T14:30:22.423Z,563.42
2023-02-06T14:32:54.267Z,564.17
2023-02-06T14:35:40.917Z,564.00
2023-02-06T14:38:45.430Z,563.88
2023-02-06T14:41:12.116Z,550.13
2023-02-06T14:43:41.154Z,547.25
2023-02-06T14:46:11.934Z,550.97
2023-02-06T14:48:44.647Z,541.13
2023-02-06T14:51:24.612Z,547.60
2023-02-06T14:53:57.617Z,541.05
2023-02-06T14:56:36.638Z,542.58
2023-02-06T14:59:12.364Z,539.67
2023-02-06T15:01:39.609Z,535.63
2023-02-06T15:04:12.048Z,538.53
2023-02-06T15:06:42.035Z,538.75
2023-02-06T15:09:08.563Z,538.47
2023-02-06T15:11:35.205Z,536.85
2023-02-06T15:14:04.670Z,540.55
2023-02-06T15:16:45.781Z,536.08
2023-02-06T15:21:41.103Z,528.40
2023-02-06T15:24:23.925Z,534.75
2023-02-06T15:27:01.105Z,534.10
2023-02-06T15:29:28.011Z,537.17
2023-02-06T15:32:00.685Z,535.67
2023-02-06T15:34:27.845Z,538.10
2023-02-06T15:36:54.757Z,541.03
2023-02-06T15:39:21.692Z,539.83
2023-02-06T15:41:51.723Z,538.88
2023-02-06T15:44:21.491Z,538.25
2023-02-06T15:46:49.441Z,533.83
2023-02-06T15:49:42.351Z,535.80
2023-02-06T15:52:10.244Z,533.63
2023-02-06T15:54:40.254Z,532.17
2023-02-06T15:57:28.762Z,532.95
2023-02-06T15:59:59.585Z,528.25
2023-02-06T16:02:32.690Z,527.30
2023-02-06T16:04:59.771Z,526.78
2023-02-06T16:07:28.072Z,525.58
2023-02-06T16:12:21.989Z,517.55
2023-02-06T16:15:00.029Z,521.13
2023-02-06T16:17:41.071Z,520.45
2023-02-06T16:20:27.488Z,518.50
2023-02-06T16:22:57.723Z,517.28
2023-02-06T16:25:30.239Z,526.35
2023-02-06T16:27:57.173Z,519.10
2023-02-06T16:30:30.446Z,528.17
2023-02-06T16:32:58.439Z,519.17
2023-02-06T16:35:25.056Z,527.42
2023-02-06T16:37:53.345Z,526.92
2023-02-06T16:42:47.674Z,513.15
2023-02-06T16:45:26.276Z,360.15
2023-02-06T16:47:54.936Z,290.48
2023-02-06T16:50:21.746Z,246.18
2023-02-06T16:52:54.080Z,198.30
2023-02-06T16:55:24.959Z,200.73
2023-02-06T16:57:58.791Z,176.73
2023-02-06T17:00:31.415Z,175.13
2023-02-06T17:03:06.570Z,160.77
2023-02-06T17:05:37.141Z,158.55
2023-02-06T17:08:13.179Z,145.82
2023-02-06T17:10:39.683Z,152.55
2023-02-06T17:13:06.253Z,282.73
2023-02-06T17:15:32.877Z,269.60
2023-02-06T17:17:59.504Z,225.32
2023-02-06T17:20:30.963Z,191.57
2023-02-06T17:22:57.480Z,200.85
2023-02-06T17:25:24.596Z,228.18
2023-02-06T17:27:52.238Z,194.13
2023-02-06T17:30:21.592Z,214.30
2023-02-06T17:32:48.578Z,190.10
2023-02-06T17:35:15.537Z,162.60
2023-02-06T17:37:42.618Z,242.98
2023-02-06T17:40:12.176Z,248.68
2023-02-06T17:42:39.027Z,228.30
2023-02-06T17:45:05.960Z,224.00
2023-02-06T17:47:32.618Z,240.57
2023-02-06T17:49:59.288Z,213.80
2023-02-06T17:52:26.064Z,215.00
2023-02-06T17:54:52.564Z,151.95
2023-02-06T17:57:19.307Z,151.18
2023-02-06T17:59:45.816Z,140.63
2023-02-06T18:02:14.149Z,130.82
2023-02-06T18:07:07.933Z,130.30
2023-02-06T18:09:34.756Z,159.40
2023-02-06T18:12:01.275Z,130.70
2023-02-06T18:14:27.796Z,113.07
2023-02-06T18:16:54.314Z,121.00
2023-02-06T18:19:24.736Z,133.63
2023-02-06T18:21:51.452Z,111.57
2023-02-06T18:24:17.951Z,128.52
2023-02-06T18:26:44.720Z,134.90
2023-02-06T18:29:11.233Z,140.15
2023-02-06T18:31:37.865Z,158.07
2023-02-06T18:34:07.908Z,146.40
2023-02-06T18:36:35.938Z,125.18
2023-02-06T18:39:02.558Z,129.00
2023-02-06T18:41:48.130Z,140.73
2023-02-06T18:44:14.718Z,118.13
2023-02-06T18:46:41.305Z,109.43
2023-02-06T18:49:07.887Z,110.65
2023-02-06T18:51:34.670Z,121.85
2023-02-06T18:54:01.314Z,102.95
2023-02-06T18:56:27.934Z,113.15
2023-02-06T18:58:55.063Z,101.20
2023-02-06T19:01:23.651Z,103.60
2023-02-06T19:03:51.022Z,102.38
2023-02-06T19:06:32.192Z,103.45
2023-02-06T19:08:59.170Z,112.68
2023-02-06T19:11:26.518Z,143.95
2023-02-06T19:13:53.526Z,132.70
2023-02-06T19:16:20.666Z,132.75
2023-02-06T19:18:48.938Z,122.47
2023-02-06T19:21:18.315Z,128.68
2023-02-06T19:23:46.309Z,124.50
2023-02-06T19:26:15.124Z,121.55
2023-02-06T19:28:42.745Z,133.73
2023-02-06T19:31:10.938Z,134.80
2023-02-06T19:33:38.796Z,273.98
2023-02-06T19:36:15.786Z,289.80
2023-02-06T19:38:42.883Z,278.48
2023-02-06T19:41:14.570Z,279.70
2023-02-06T19:43:42.521Z,275.48
2023-02-06T19:46:13.827Z,279.67
2023-02-06T19:48:45.578Z,275.13
2023-02-06T19:51:21.405Z,281.35
2023-02-06T19:53:49.406Z,352.30
2023-02-06T19:56:22.497Z,389.20
2023-02-06T19:58:56.532Z,454.42
2023-02-06T20:01:23.927Z,482.88
2023-02-06T20:03:50.686Z,487.35
2023-02-06T20:06:17.832Z,492.35
2023-02-06T20:08:45.999Z,488.17
2023-02-06T20:11:15.039Z,499.02
2023-02-06T20:13:41.810Z,500.73
2023-02-06T20:16:20.033Z,495.80
2023-02-06T20:18:46.596Z,499.90
2023-02-06T20:21:28.259Z,501.25
2023-02-06T20:23:55.792Z,496.73
2023-02-06T20:26:24.140Z,506.05
2023-02-06T20:28:50.782Z,509.63
2023-02-06T20:31:17.431Z,508.65
2023-02-06T20:33:44.326Z,510.70
2023-02-06T20:36:14.057Z,505.83
2023-02-06T20:38:41.171Z,505.67
2023-02-06T20:41:08.262Z,504.70
2023-02-06T20:43:36.241Z,506.60
2023-02-06T20:46:05.979Z,503.00
2023-02-06T20:48:33.850Z,501.77
2023-02-06T20:51:01.999Z,497.70
2023-02-06T20:53:29.474Z,510.45
2023-02-06T20:55:56.457Z,498.27
2023-02-06T20:58:23.227Z,504.92
2023-02-06T21:00:50.255Z,507.70
2023-02-06T21:03:16.903Z,500.38
2023-02-06T21:05:43.771Z,504.60
2023-02-06T21:08:10.605Z,500.13
2023-02-06T21:10:37.380Z,503.77
2023-02-06T21:13:04.018Z,493.88
2023-02-06T21:15:30.559Z,494.95
2023-02-06T21:17:58.237Z,493.65
2023-02-06T21:20:24.718Z,501.90
2023-02-06T21:22:52.829Z,497.17
2023-02-06T21:25:20.458Z,502.60
2023-02-06T21:27:47.068Z,495.88
2023-02-06T21:30:13.757Z,491.85
2023-02-06T21:32:40.319Z,491.15
2023-02-06T21:35:09.191Z,489.35
2023-02-06T21:37:35.940Z,492.17
2023-02-06T21:40:03.439Z,490.48
2023-02-06T21:42:29.962Z,493.88
2023-02-06T21:44:56.453Z,486.30
2023-02-06T21:47:22.962Z,494.33
2023-02-06T21:49:49.435Z,486.35
2023-02-06T21:52:15.949Z,488.65
2023-02-06T21:54:42.453Z,491.73
2023-02-06T21:57:08.959Z,489.85
2023-02-06T21:59:37.810Z,486.05
2023-02-06T22:02:04.821Z,481.92
2023-02-06T22:04:31.387Z,486.98
2023-02-06T22:06:57.942Z,485.35
2023-02-06T22:09:24.499Z,488.85
2023-02-06T22:11:51.030Z,487.40
2023-02-06T22:14:18.194Z,485.40
2023-02-06T22:16:46.832Z,481.70
2023-02-06T22:19:14.649Z,482.13
2023-02-06T22:21:41.849Z,485.75
2023-02-06T22:24:10.223Z,478.40
2023-02-06T22:29:08.925Z,474.83
2023-02-06T22:31:36.563Z,481.25
2023-02-06T22:34:03.297Z,474.88
2023-02-06T22:36:32.270Z,480.77
2023-02-06T22:39:10.182Z,477.13
2023-02-06T22:41:39.298Z,482.00
2023-02-06T22:44:05.813Z,477.52
2023-02-06T22:46:37.818Z,483.77
2023-02-06T22:49:06.365Z,472.02
2023-02-06T22:51:33.155Z,425.05
2023-02-06T22:54:00.522Z,418.58
2023-02-06T22:56:36.007Z,426.63
2023-02-06T22:59:05.475Z,419.67
2023-02-06T23:01:53.372Z,426.52
2023-02-06T23:04:22.311Z,425.70
2023-02-06T23:06:49.577Z,418.58
2023-02-06T23:09:18.691Z,424.83
2023-02-06T23:11:45.517Z,422.15
2023-02-06T23:14:13.486Z,419.60
2023-02-06T23:16:40.252Z,426.58
2023-02-06T23:19:07.168Z,421.38
2023-02-06T23:21:36.612Z,429.88
2023-02-06T23:24:04.933Z,426.75
2023-02-06T23:26:31.970Z,421.35
2023-02-06T23:29:00.257Z,414.77
2023-02-06T23:31:27.582Z,424.60
2023-02-06T23:33:54.521Z,422.77
2023-02-06T23:36:22.694Z,428.67
2023-02-06T23:38:49.503Z,424.27
2023-02-06T23:41:27.172Z,427.48
2023-02-06T23:43:57.977Z,431.65
2023-02-06T23:46:25.633Z,430.90
2023-02-06T23:48:52.864Z,426.30
2023-02-06T23:51:20.555Z,429.20
2023-02-06T23:53:48.062Z,428.27
2023-02-06T23:56:17.333Z,428.55
2023-02-06T23:58:44.282Z,429.52
